sensor_id;sensor_type;location;lat;lon;timestamp;temperature;humidity
13496;DHT22;6820;49.374;8.452;2023-07-02T00:00:25;19.20;99.99
13496;DHT22;6820;49.374;8.452;2023-07-02T00:04:27;19.21;99.99
13496;DHT22;6820;49.374;8.452;2023-07-02T00:08:28;19.24;99.99
13496;DHT22;6820;49.374;8.452;2023-07-02T00:12:30;19.24;99.99
13496;DHT22;6820;49.374;8.452;2023-07-02T00:16:32;19.23;99.99
13496;DHT22;6820;49.374;8.452;2023-07-02T00:20:33;19.24;99.99
13496;DHT22;6820;49.374;8.452;2023-07-02T00:24:39;19.28;99.99
13496;DHT22;6820;49.374;8.452;2023-07-02T00:28:40;19.32;99.99
13496;DHT22;6820;49.374;8.452;2023-07-02T00:32:42;19.34;99.99
13496;DHT22;6820;49.374;8.452;2023-07-02T00:36:45;19.35;99.99
13496;DHT22;6820;49.374;8.452;2023-07-02T00:40:48;19.35;99.99
13496;DHT22;6820;49.374;8.452;2023-07-02T00:44:49;19.34;99.99
13496;DHT22;6820;49.374;8.452;2023-07-02T00:48:54;19.35;99.99
13496;DHT22;6820;49.374;8.452;2023-07-02T00:52:56;19.32;99.99
13496;DHT22;6820;49.374;8.452;2023-07-02T00:56:58;19.28;99.99
13496;DHT22;6820;49.374;8.452;2023-07-02T01:01:04;19.31;99.99
13496;DHT22;6820;49.374;8.452;2023-07-02T01:05:06;19.30;99.99
13496;DHT22;6820;49.374;8.452;2023-07-02T01:09:08;19.34;99.99
13496;DHT22;6820;49.374;8.452;2023-07-02T01:13:11;19.31;99.99
13496;DHT22;6820;49.374;8.452;2023-07-02T01:17:16;19.31;99.99
13496;DHT22;6820;49.374;8.452;2023-07-02T01:21:21;19.34;99.99
13496;DHT22;6820;49.374;8.452;2023-07-02T01:25:25;19.35;99.99
13496;DHT22;6820;49.374;8.452;2023-07-02T01:29:31;19.35;99.99
13496;DHT22;6820;49.374;8.452;2023-07-02T01:33:32;19.39;99.99
13496;DHT22;6820;49.374;8.452;2023-07-02T01:37:34;19.42;99.99
13496;DHT22;6820;49.374;8.452;2023-07-02T01:41:44;19.38;99.99
13496;DHT22;6820;49.374;8.452;2023-07-02T01:45:51;19.32;99.99
13496;DHT22;6820;49.374;8.452;2023-07-02T01:49:53;19.20;99.99
13496;DHT22;6820;49.374;8.452;2023-07-02T01:53:55;19.16;99.99
13496;DHT22;6820;49.374;8.452;2023-07-02T01:57:57;19.12;99.99
13496;DHT22;6820;49.374;8.452;2023-07-02T02:01:58;19.07;99.99
13496;DHT22;6820;49.374;8.452;2023-07-02T02:06:00;18.99;99.99
13496;DHT22;6820;49.374;8.452;2023-07-02T02:10:02;18.96;99.99
13496;DHT22;6820;49.374;8.452;2023-07-02T02:14:05;18.90;99.99
13496;DHT22;6820;49.374;8.452;2023-07-02T02:18:07;18.84;99.99
13496;DHT22;6820;49.374;8.452;2023-07-02T02:22:08;18.82;99.99
13496;DHT22;6820;49.374;8.452;2023-07-02T02:26:10;18.82;99.99
13496;DHT22;6820;49.374;8.452;2023-07-02T02:30:12;18.75;99.99
13496;DHT22;6820;49.374;8.452;2023-07-02T02:34:13;18.72;99.99
13496;DHT22;6820;49.374;8.452;2023-07-02T02:38:15;18.71;99.99
13496;DHT22;6820;49.374;8.452;2023-07-02T02:42:17;18.65;99.99
13496;DHT22;6820;49.374;8.452;2023-07-02T02:46:19;18.59;99.99
13496;DHT22;6820;49.374;8.452;2023-07-02T02:50:23;18.56;99.99
13496;DHT22;6820;49.374;8.452;2023-07-02T02:54:25;18.46;99.99
13496;DHT22;6820;49.374;8.452;2023-07-02T02:58:26;18.28;99.99
13496;DHT22;6820;49.374;8.452;2023-07-02T03:02:29;18.29;99.99
13496;DHT22;6820;49.374;8.452;2023-07-02T03:06:31;18.21;99.99
13496;DHT22;6820;49.374;8.452;2023-07-02T03:10:33;18.09;99.99
13496;DHT22;6820;49.374;8.452;2023-07-02T03:14:34;18.01;99.99
13496;DHT22;6820;49.374;8.452;2023-07-02T03:18:36;17.94;99.99
13496;DHT22;6820;49.374;8.452;2023-07-02T03:22:37;17.92;99.99
13496;DHT22;6820;49.374;8.452;2023-07-02T03:26:40;17.87;99.99
13496;DHT22;6820;49.374;8.452;2023-07-02T03:30:42;17.81;99.99
13496;DHT22;6820;49.374;8.452;2023-07-02T03:34:43;17.86;99.99
13496;DHT22;6820;49.374;8.452;2023-07-02T03:38:45;17.87;99.99
13496;DHT22;6820;49.374;8.452;2023-07-02T03:42:46;17.89;99.99
13496;DHT22;6820;49.374;8.452;2023-07-02T03:46:48;17.89;99.99
13496;DHT22;6820;49.374;8.452;2023-07-02T03:50:50;17.89;99.99
13496;DHT22;6820;49.374;8.452;2023-07-02T03:54:51;17.89;99.99
13496;DHT22;6820;49.374;8.452;2023-07-02T03:58:53;17.89;99.99
13496;DHT22;6820;49.374;8.452;2023-07-02T04:02:55;17.91;99.99
13496;DHT22;6820;49.374;8.452;2023-07-02T04:06:56;17.89;99.99
13496;DHT22;6820;49.374;8.452;2023-07-02T04:10:58;17.83;99.99
13496;DHT22;6820;49.374;8.452;2023-07-02T04:14:59;17.79;99.99
13496;DHT22;6820;49.374;8.452;2023-07-02T04:19:01;17.74;99.99
13496;DHT22;6820;49.374;8.452;2023-07-02T04:23:03;17.74;99.99
13496;DHT22;6820;49.374;8.452;2023-07-02T04:27:05;17.73;99.99
13496;DHT22;6820;49.374;8.452;2023-07-02T04:31:27;17.79;99.99
13496;DHT22;6820;49.374;8.452;2023-07-02T04:35:28;17.91;99.99
13496;DHT22;6820;49.374;8.452;2023-07-02T04:39:30;17.98;99.99
13496;DHT22;6820;49.374;8.452;2023-07-02T04:43:32;17.99;99.99
13496;DHT22;6820;49.374;8.452;2023-07-02T04:47:34;18.04;99.99
13496;DHT22;6820;49.374;8.452;2023-07-02T04:51:37;18.17;99.99
13496;DHT22;6820;49.374;8.452;2023-07-02T04:55:39;18.29;99.99
13496;DHT22;6820;49.374;8.452;2023-07-02T04:59:43;18.38;99.99
13496;DHT22;6820;49.374;8.452;2023-07-02T05:03:45;18.50;99.99
13496;DHT22;6820;49.374;8.452;2023-07-02T05:07:47;18.59;99.99
13496;DHT22;6820;49.374;8.452;2023-07-02T05:11:49;18.66;99.99
13496;DHT22;6820;49.374;8.452;2023-07-02T05:15:50;18.69;99.99
13496;DHT22;6820;49.374;8.452;2023-07-02T05:19:52;18.64;99.99
13496;DHT22;6820;49.374;8.452;2023-07-02T05:23:54;18.60;99.99
13496;DHT22;6820;49.374;8.452;2023-07-02T05:27:55;18.62;99.99
13496;DHT22;6820;49.374;8.452;2023-07-02T05:31:57;18.60;99.99
13496;DHT22;6820;49.374;8.452;2023-07-02T05:35:58;18.57;99.99
13496;DHT22;6820;49.374;8.452;2023-07-02T05:40:00;18.57;99.99
13496;DHT22;6820;49.374;8.452;2023-07-02T05:44:02;18.59;99.99
13496;DHT22;6820;49.374;8.452;2023-07-02T05:48:03;18.60;99.99
13496;DHT22;6820;49.374;8.452;2023-07-02T05:52:05;18.65;99.99
13496;DHT22;6820;49.374;8.452;2023-07-02T05:56:07;18.66;99.99
13496;DHT22;6820;49.374;8.452;2023-07-02T06:00:09;18.69;99.99
13496;DHT22;6820;49.374;8.452;2023-07-02T06:04:14;18.72;99.99
13496;DHT22;6820;49.374;8.452;2023-07-02T06:08:16;18.75;99.99
13496;DHT22;6820;49.374;8.452;2023-07-02T06:12:18;18.82;99.99
13496;DHT22;6820;49.374;8.452;2023-07-02T06:16:22;18.84;99.99
13496;DHT22;6820;49.374;8.452;2023-07-02T06:20:23;18.90;99.99
13496;DHT22;6820;49.374;8.452;2023-07-02T06:24:25;18.93;99.99
13496;DHT22;6820;49.374;8.452;2023-07-02T06:28:27;18.94;99.99
13496;DHT22;6820;49.374;8.452;2023-07-02T06:32:29;18.96;99.99
13496;DHT22;6820;49.374;8.452;2023-07-02T06:36:31;18.99;99.99
13496;DHT22;6820;49.374;8.452;2023-07-02T06:40:32;19.10;99.99
13496;DHT22;6820;49.374;8.452;2023-07-02T06:44:34;19.21;99.99
13496;DHT22;6820;49.374;8.452;2023-07-02T06:48:35;19.32;99.99
13496;DHT22;6820;49.374;8.452;2023-07-02T06:52:37;19.42;99.99
13496;DHT22;6820;49.374;8.452;2023-07-02T06:56:39;19.50;99.99
13496;DHT22;6820;49.374;8.452;2023-07-02T07:00:40;19.58;99.99
13496;DHT22;6820;49.374;8.452;2023-07-02T07:04:42;19.61;99.99
13496;DHT22;6820;49.374;8.452;2023-07-02T07:08:44;19.68;99.99
13496;DHT22;6820;49.374;8.452;2023-07-02T07:12:45;19.79;99.99
13496;DHT22;6820;49.374;8.452;2023-07-02T07:16:47;19.87;99.99
13496;DHT22;6820;49.374;8.452;2023-07-02T07:20:48;20.01;99.99
13496;DHT22;6820;49.374;8.452;2023-07-02T07:24:51;20.16;99.99
13496;DHT22;6820;49.374;8.452;2023-07-02T07:28:52;20.27;99.99
13496;DHT22;6820;49.374;8.452;2023-07-02T07:32:57;20.48;99.99
13496;DHT22;6820;49.374;8.452;2023-07-02T07:36:59;20.54;99.99
13496;DHT22;6820;49.374;8.452;2023-07-02T07:41:00;20.53;99.99
13496;DHT22;6820;49.374;8.452;2023-07-02T07:45:02;20.61;99.99
13496;DHT22;6820;49.374;8.452;2023-07-02T07:49:05;20.60;99.99
13496;DHT22;6820;49.374;8.452;2023-07-02T07:53:06;20.56;99.99
13496;DHT22;6820;49.374;8.452;2023-07-02T07:57:08;20.58;99.99
13496;DHT22;6820;49.374;8.452;2023-07-02T08:01:10;20.64;99.99
13496;DHT22;6820;49.374;8.452;2023-07-02T08:05:11;20.71;99.99
13496;DHT22;6820;49.374;8.452;2023-07-02T08:09:13;20.73;99.99
13496;DHT22;6820;49.374;8.452;2023-07-02T08:13:15;20.57;99.99
13496;DHT22;6820;49.374;8.452;2023-07-02T08:17:18;20.68;99.99
13496;DHT22;6820;49.374;8.452;2023-07-02T08:21:20;20.58;99.99
13496;DHT22;6820;49.374;8.452;2023-07-02T08:25:22;20.44;99.99
13496;DHT22;6820;49.374;8.452;2023-07-02T08:29:23;20.66;99.99
13496;DHT22;6820;49.374;8.452;2023-07-02T08:33:25;20.79;99.99
13496;DHT22;6820;49.374;8.452;2023-07-02T08:37:27;20.83;99.99
13496;DHT22;6820;49.374;8.452;2023-07-02T08:41:29;20.75;99.99
13496;DHT22;6820;49.374;8.452;2023-07-02T08:45:31;20.72;99.99
13496;DHT22;6820;49.374;8.452;2023-07-02T08:49:33;20.94;99.99
13496;DHT22;6820;49.374;8.452;2023-07-02T08:53:35;21.19;99.99
13496;DHT22;6820;49.374;8.452;2023-07-02T08:57:37;21.37;99.99
13496;DHT22;6820;49.374;8.452;2023-07-02T09:01:48;21.58;99.99
13496;DHT22;6820;49.374;8.452;2023-07-02T09:05:51;21.53;99.99
13496;DHT22;6820;49.374;8.452;2023-07-02T09:09:53;21.33;99.99
13496;DHT22;6820;49.374;8.452;2023-07-02T09:13:55;21.22;99.99
13496;DHT22;6820;49.374;8.452;2023-07-02T09:18:13;21.22;99.99
13496;DHT22;6820;49.374;8.452;2023-07-02T09:22:16;21.43;99.99
13496;DHT22;6820;49.374;8.452;2023-07-02T09:26:21;21.61;99.99
13496;DHT22;6820;49.374;8.452;2023-07-02T09:30:23;21.56;99.99
13496;DHT22;6820;49.374;8.452;2023-07-02T09:34:31;21.61;99.99
13496;DHT22;6820;49.374;8.452;2023-07-02T09:38:34;21.71;99.99
13496;DHT22;6820;49.374;8.452;2023-07-02T09:42:36;21.89;99.99
13496;DHT22;6820;49.374;8.452;2023-07-02T09:46:45;21.96;99.99
13496;DHT22;6820;49.374;8.452;2023-07-02T09:50:54;21.79;99.99
13496;DHT22;6820;49.374;8.452;2023-07-02T09:54:58;21.75;99.99
13496;DHT22;6820;49.374;8.452;2023-07-02T09:59:00;21.68;99.99
13496;DHT22;6820;49.374;8.452;2023-07-02T10:03:01;21.67;99.99
13496;DHT22;6820;49.374;8.452;2023-07-02T10:07:05;21.85;99.99
13496;DHT22;6820;49.374;8.452;2023-07-02T10:11:12;21.90;99.99
13496;DHT22;6820;49.374;8.452;2023-07-02T10:15:23;21.90;99.99
13496;DHT22;6820;49.374;8.452;2023-07-02T10:19:26;21.83;99.99
13496;DHT22;6820;49.374;8.452;2023-07-02T10:23:34;22.08;99.99
13496;DHT22;6820;49.374;8.452;2023-07-02T10:27:37;22.67;99.99
13496;DHT22;6820;49.374;8.452;2023-07-02T10:31:52;23.07;99.99
13496;DHT22;6820;49.374;8.452;2023-07-02T10:35:54;23.04;99.99
13496;DHT22;6820;49.374;8.452;2023-07-02T10:39:56;22.88;99.99
13496;DHT22;6820;49.374;8.452;2023-07-02T10:44:07;22.64;99.99
13496;DHT22;6820;49.374;8.452;2023-07-02T10:48:12;22.45;99.99
13496;DHT22;6820;49.374;8.452;2023-07-02T10:52:13;22.44;99.99
13496;DHT22;6820;49.374;8.452;2023-07-02T10:56:15;22.61;99.99
13496;DHT22;6820;49.374;8.452;2023-07-02T11:00:18;22.86;99.99
13496;DHT22;6820;49.374;8.452;2023-07-02T11:04:20;23.31;99.00
13496;DHT22;6820;49.374;8.452;2023-07-02T11:08:22;23.41;99.99
13496;DHT22;6820;49.374;8.452;2023-07-02T11:12:29;24.09;98.66
13496;DHT22;6820;49.374;8.452;2023-07-02T11:16:32;24.34;97.27
13496;DHT22;6820;49.374;8.452;2023-07-02T11:20:37;24.15;98.47
13496;DHT22;6820;49.374;8.452;2023-07-02T11:24:40;24.04;97.92
13496;DHT22;6820;49.374;8.452;2023-07-02T11:28:49;23.87;98.07
13496;DHT22;6820;49.374;8.452;2023-07-02T11:32:54;23.81;98.17
13496;DHT22;6820;49.374;8.452;2023-07-02T11:36:56;23.96;97.91
13496;DHT22;6820;49.374;8.452;2023-07-02T11:40:58;24.27;97.47
13496;DHT22;6820;49.374;8.452;2023-07-02T11:44:59;24.37;96.83
13496;DHT22;6820;49.374;8.452;2023-07-02T11:49:01;24.53;95.89
13496;DHT22;6820;49.374;8.452;2023-07-02T11:53:03;24.77;94.79
13496;DHT22;6820;49.374;8.452;2023-07-02T11:57:05;24.82;95.24
13496;DHT22;6820;49.374;8.452;2023-07-02T12:01:07;25.05;95.14
13496;DHT22;6820;49.374;8.452;2023-07-02T12:05:09;25.57;94.50
13496;DHT22;6820;49.374;8.452;2023-07-02T12:09:13;25.59;93.27
13496;DHT22;6820;49.374;8.452;2023-07-02T12:13:15;25.31;92.58
13496;DHT22;6820;49.374;8.452;2023-07-02T12:17:17;25.57;93.22
13496;DHT22;6820;49.374;8.452;2023-07-02T12:21:18;25.29;92.97
13496;DHT22;6820;49.374;8.452;2023-07-02T12:25:20;25.29;93.16
13496;DHT22;6820;49.374;8.452;2023-07-02T12:29:22;25.20;92.67
13496;DHT22;6820;49.374;8.452;2023-07-02T12:33:23;25.38;92.37
13496;DHT22;6820;49.374;8.452;2023-07-02T12:37:25;25.44;91.83
13496;DHT22;6820;49.374;8.452;2023-07-02T12:41:27;25.69;91.24
13496;DHT22;6820;49.374;8.452;2023-07-02T12:45:29;25.74;91.69
13496;DHT22;6820;49.374;8.452;2023-07-02T12:49:32;25.81;91.09
13496;DHT22;6820;49.374;8.452;2023-07-02T12:53:34;26.03;90.95
13496;DHT22;6820;49.374;8.452;2023-07-02T12:57:36;26.54;90.01
13496;DHT22;6820;49.374;8.452;2023-07-02T13:01:37;26.61;89.03
13496;DHT22;6820;49.374;8.452;2023-07-02T13:05:39;26.78;89.53
13496;DHT22;6820;49.374;8.452;2023-07-02T13:09:41;26.98;88.40
13496;DHT22;6820;49.374;8.452;2023-07-02T13:13:43;26.61;88.65
13496;DHT22;6820;49.374;8.452;2023-07-02T13:17:44;26.51;89.83
13496;DHT22;6820;49.374;8.452;2023-07-02T13:21:46;26.39;89.83
13496;DHT22;6820;49.374;8.452;2023-07-02T13:25:48;26.17;90.26
13496;DHT22;6820;49.374;8.452;2023-07-02T13:29:50;26.06;91.10
13496;DHT22;6820;49.374;8.452;2023-07-02T13:33:52;26.20;89.42
13496;DHT22;6820;49.374;8.452;2023-07-02T13:37:53;26.35;89.32
13496;DHT22;6820;49.374;8.452;2023-07-02T13:41:55;26.93;89.17
13496;DHT22;6820;49.374;8.452;2023-07-02T13:45:56;26.90;89.39
13496;DHT22;6820;49.374;8.452;2023-07-02T13:49:58;26.71;89.29
13496;DHT22;6820;49.374;8.452;2023-07-02T13:54:00;26.53;89.63
13496;DHT22;6820;49.374;8.452;2023-07-02T13:58:02;26.56;89.53
13496;DHT22;6820;49.374;8.452;2023-07-02T14:02:03;26.84;88.84
13496;DHT22;6820;49.374;8.452;2023-07-02T14:06:05;27.13;88.70
13496;DHT22;6820;49.374;8.452;2023-07-02T14:10:07;27.42;86.77
13496;DHT22;6820;49.374;8.452;2023-07-02T14:14:09;27.62;86.83
13496;DHT22;6820;49.374;8.452;2023-07-02T14:18:11;27.86;86.49
13496;DHT22;6820;49.374;8.452;2023-07-02T14:22:13;27.68;85.75
13496;DHT22;6820;49.374;8.452;2023-07-02T14:26:15;27.98;85.50
13496;DHT22;6820;49.374;8.452;2023-07-02T14:30:17;28.23;84.92
13496;DHT22;6820;49.374;8.452;2023-07-02T14:34:18;28.32;84.49
13496;DHT22;6820;49.374;8.452;2023-07-02T14:38:20;28.06;85.08
13496;DHT22;6820;49.374;8.452;2023-07-02T14:42:22;28.62;84.53
13496;DHT22;6820;49.374;8.452;2023-07-02T14:46:24;28.87;83.56
13496;DHT22;6820;49.374;8.452;2023-07-02T14:50:26;28.73;83.12
13496;DHT22;6820;49.374;8.452;2023-07-02T14:54:29;28.83;82.73
13496;DHT22;6820;49.374;8.452;2023-07-02T14:58:31;28.94;82.53
13496;DHT22;6820;49.374;8.452;2023-07-02T15:02:33;29.17;81.60
13496;DHT22;6820;49.374;8.452;2023-07-02T15:06:35;29.17;81.17
13496;DHT22;6820;49.374;8.452;2023-07-02T15:10:37;29.12;81.96
13496;DHT22;6820;49.374;8.452;2023-07-02T15:14:40;28.74;82.10
13496;DHT22;6820;49.374;8.452;2023-07-02T15:18:41;28.20;83.03
13496;DHT22;6820;49.374;8.452;2023-07-02T15:22:43;28.85;82.95
13496;DHT22;6820;49.374;8.452;2023-07-02T15:26:45;29.08;81.35
13496;DHT22;6820;49.374;8.452;2023-07-02T15:30:47;29.05;81.51
13496;DHT22;6820;49.374;8.452;2023-07-02T15:34:56;28.82;81.90
13496;DHT22;6820;49.374;8.452;2023-07-02T15:38:58;28.32;82.34
13496;DHT22;6820;49.374;8.452;2023-07-02T15:42:59;28.35;81.52
13496;DHT22;6820;49.374;8.452;2023-07-02T15:47:01;28.39;81.73
13496;DHT22;6820;49.374;8.452;2023-07-02T15:51:05;27.98;83.20
13496;DHT22;6820;49.374;8.452;2023-07-02T15:55:08;28.32;81.76
13496;DHT22;6820;49.374;8.452;2023-07-02T15:59:09;28.32;82.42
13496;DHT22;6820;49.374;8.452;2023-07-02T16:03:11;28.55;82.12
13496;DHT22;6820;49.374;8.452;2023-07-02T16:07:13;28.01;83.07
13496;DHT22;6820;49.374;8.452;2023-07-02T16:11:16;27.39;83.94
13496;DHT22;6820;49.374;8.452;2023-07-02T16:15:17;27.05;84.85
13496;DHT22;6820;49.374;8.452;2023-07-02T16:19:20;26.86;85.58
13496;DHT22;6820;49.374;8.452;2023-07-02T16:23:23;27.45;85.13
13496;DHT22;6820;49.374;8.452;2023-07-02T16:27:25;27.81;83.66
13496;DHT22;6820;49.374;8.452;2023-07-02T16:31:26;27.53;83.68
13496;DHT22;6820;49.374;8.452;2023-07-02T16:35:28;27.20;84.91
13496;DHT22;6820;49.374;8.452;2023-07-02T16:39:30;27.38;84.30
13496;DHT22;6820;49.374;8.452;2023-07-02T16:43:32;27.46;84.06
13496;DHT22;6820;49.374;8.452;2023-07-02T16:47:34;27.69;83.86
13496;DHT22;6820;49.374;8.452;2023-07-02T16:51:36;27.91;83.42
13496;DHT22;6820;49.374;8.452;2023-07-02T16:55:40;27.31;84.08
13496;DHT22;6820;49.374;8.452;2023-07-02T16:59:42;27.12;84.95
13496;DHT22;6820;49.374;8.452;2023-07-02T17:03:44;27.48;85.19
13496;DHT22;6820;49.374;8.452;2023-07-02T17:07:47;27.05;85.00
13496;DHT22;6820;49.374;8.452;2023-07-02T17:11:49;26.54;85.88
13496;DHT22;6820;49.374;8.452;2023-07-02T17:15:53;26.19;87.05
13496;DHT22;6820;49.374;8.452;2023-07-02T17:19:56;26.01;87.13
13496;DHT22;6820;49.374;8.452;2023-07-02T17:23:58;26.13;87.43
13496;DHT22;6820;49.374;8.452;2023-07-02T17:28:00;26.13;87.24
13496;DHT22;6820;49.374;8.452;2023-07-02T17:32:06;25.91;87.83
13496;DHT22;6820;49.374;8.452;2023-07-02T17:36:09;25.86;88.37
13496;DHT22;6820;49.374;8.452;2023-07-02T17:40:11;25.64;87.87
13496;DHT22;6820;49.374;8.452;2023-07-02T17:44:13;25.46;88.51
13496;DHT22;6820;49.374;8.452;2023-07-02T17:48:16;25.30;88.95
13496;DHT22;6820;49.374;8.452;2023-07-02T17:52:18;25.16;89.05
13496;DHT22;6820;49.374;8.452;2023-07-02T17:56:21;24.98;89.39
13496;DHT22;6820;49.374;8.452;2023-07-02T18:00:23;24.93;89.93
13496;DHT22;6820;49.374;8.452;2023-07-02T18:04:25;24.86;90.13
13496;DHT22;6820;49.374;8.452;2023-07-02T18:08:28;24.77;90.23
13496;DHT22;6820;49.374;8.452;2023-07-02T18:12:29;24.67;90.27
13496;DHT22;6820;49.374;8.452;2023-07-02T18:16:31;24.67;90.47
13496;DHT22;6820;49.374;8.452;2023-07-02T18:20:33;24.66;90.77
13496;DHT22;6820;49.374;8.452;2023-07-02T18:24:36;24.67;90.67
13496;DHT22;6820;49.374;8.452;2023-07-02T18:28:39;24.64;90.87
13496;DHT22;6820;49.374;8.452;2023-07-02T18:32:41;24.63;91.17
13496;DHT22;6820;49.374;8.452;2023-07-02T18:36:43;24.59;91.56
13496;DHT22;6820;49.374;8.452;2023-07-02T18:41:00;24.45;91.66
13496;DHT22;6820;49.374;8.452;2023-07-02T18:45:05;24.34;92.10
13496;DHT22;6820;49.374;8.452;2023-07-02T18:49:07;24.21;92.00
13496;DHT22;6820;49.374;8.452;2023-07-02T18:53:09;24.06;91.65
13496;DHT22;6820;49.374;8.452;2023-07-02T18:57:11;23.93;92.19
13496;DHT22;6820;49.374;8.452;2023-07-02T19:01:13;23.86;92.59
13496;DHT22;6820;49.374;8.452;2023-07-02T19:05:17;23.81;93.04
13496;DHT22;6820;49.374;8.452;2023-07-02T19:09:19;23.69;93.33
13496;DHT22;6820;49.374;8.452;2023-07-02T19:13:21;23.67;93.63
13496;DHT22;6820;49.374;8.452;2023-07-02T19:17:23;23.59;94.13
13496;DHT22;6820;49.374;8.452;2023-07-02T19:21:24;23.49;94.78
13496;DHT22;6820;49.374;8.452;2023-07-02T19:25:26;23.38;94.97
13496;DHT22;6820;49.374;8.452;2023-07-02T19:29:28;23.32;94.52
13496;DHT22;6820;49.374;8.452;2023-07-02T19:33:31;23.19;94.42
13496;DHT22;6820;49.374;8.452;2023-07-02T19:37:33;23.15;94.92
13496;DHT22;6820;49.374;8.452;2023-07-02T19:41:34;23.06;95.06
13496;DHT22;6820;49.374;8.452;2023-07-02T19:45:36;22.94;95.26
13496;DHT22;6820;49.374;8.452;2023-07-02T19:49:39;22.86;95.56
13496;DHT22;6820;49.374;8.452;2023-07-02T19:53:46;22.82;95.90
13496;DHT22;6820;49.374;8.452;2023-07-02T19:57:48;22.78;96.31
13496;DHT22;6820;49.374;8.452;2023-07-02T20:01:49;22.67;96.50
13496;DHT22;6820;49.374;8.452;2023-07-02T20:05:51;22.63;96.85
13496;DHT22;6820;49.374;8.452;2023-07-02T20:09:53;22.59;97.15
13496;DHT22;6820;49.374;8.452;2023-07-02T20:13:56;22.54;97.35
13496;DHT22;6820;49.374;8.452;2023-07-02T20:17:58;22.49;97.45
13496;DHT22;6820;49.374;8.452;2023-07-02T20:21:59;22.41;97.05
13496;DHT22;6820;49.374;8.452;2023-07-02T20:26:01;22.31;97.50
13496;DHT22;6820;49.374;8.452;2023-07-02T20:30:03;22.26;98.10
13496;DHT22;6820;49.374;8.452;2023-07-02T20:34:05;22.19;98.19
13496;DHT22;6820;49.374;8.452;2023-07-02T20:38:10;22.15;98.44
13496;DHT22;6820;49.374;8.452;2023-07-02T20:42:14;22.08;98.54
13496;DHT22;6820;49.374;8.452;2023-07-02T20:46:19;22.04;98.94
13496;DHT22;6820;49.374;8.452;2023-07-02T20:50:22;21.98;99.04
13496;DHT22;6820;49.374;8.452;2023-07-02T20:54:23;21.98;99.19
13496;DHT22;6820;49.374;8.452;2023-07-02T20:58:25;21.91;99.19
13496;DHT22;6820;49.374;8.452;2023-07-02T21:02:27;21.86;99.49
13496;DHT22;6820;49.374;8.452;2023-07-02T21:06:28;21.75;99.89
13496;DHT22;6820;49.374;8.452;2023-07-02T21:10:30;21.71;99.99
13496;DHT22;6820;49.374;8.452;2023-07-02T21:14:32;21.66;99.99
13496;DHT22;6820;49.374;8.452;2023-07-02T21:18:33;21.63;99.99
13496;DHT22;6820;49.374;8.452;2023-07-02T21:22:35;21.56;99.99
13496;DHT22;6820;49.374;8.452;2023-07-02T21:26:37;21.48;99.99
13496;DHT22;6820;49.374;8.452;2023-07-02T21:30:38;21.38;99.99
13496;DHT22;6820;49.374;8.452;2023-07-02T21:34:40;21.27;99.99
13496;DHT22;6820;49.374;8.452;2023-07-02T21:38:44;21.26;99.99
13496;DHT22;6820;49.374;8.452;2023-07-02T21:42:46;21.21;99.99
13496;DHT22;6820;49.374;8.452;2023-07-02T21:46:48;21.19;99.99
13496;DHT22;6820;49.374;8.452;2023-07-02T21:50:49;21.15;99.99
13496;DHT22;6820;49.374;8.452;2023-07-02T21:54:51;21.13;99.99
13496;DHT22;6820;49.374;8.452;2023-07-02T21:58:53;21.11;99.99
13496;DHT22;6820;49.374;8.452;2023-07-02T22:02:55;21.06;99.99
13496;DHT22;6820;49.374;8.452;2023-07-02T22:06:56;21.01;99.99
13496;DHT22;6820;49.374;8.452;2023-07-02T22:10:58;21.00;99.99
13496;DHT22;6820;49.374;8.452;2023-07-02T22:15:17;20.97;99.99
13496;DHT22;6820;49.374;8.452;2023-07-02T22:19:19;20.93;99.99
13496;DHT22;6820;49.374;8.452;2023-07-02T22:23:21;20.93;99.99
13496;DHT22;6820;49.374;8.452;2023-07-02T22:27:22;20.88;99.99
13496;DHT22;6820;49.374;8.452;2023-07-02T22:31:27;20.88;99.99
13496;DHT22;6820;49.374;8.452;2023-07-02T22:35:29;20.87;99.99
13496;DHT22;6820;49.374;8.452;2023-07-02T22:39:31;20.87;99.99
13496;DHT22;6820;49.374;8.452;2023-07-02T22:43:32;20.83;99.99
13496;DHT22;6820;49.374;8.452;2023-07-02T22:47:34;20.79;99.99
13496;DHT22;6820;49.374;8.452;2023-07-02T22:51:36;20.76;99.99
13496;DHT22;6820;49.374;8.452;2023-07-02T22:55:38;20.72;99.99
13496;DHT22;6820;49.374;8.452;2023-07-02T22:59:39;20.68;99.99
13496;DHT22;6820;49.374;8.452;2023-07-02T23:03:41;20.64;99.99
13496;DHT22;6820;49.374;8.452;2023-07-02T23:07:43;20.58;99.99
13496;DHT22;6820;49.374;8.452;2023-07-02T23:11:46;20.54;99.99
13496;DHT22;6820;49.374;8.452;2023-07-02T23:15:48;20.51;99.99
13496;DHT22;6820;49.374;8.452;2023-07-02T23:19:50;20.48;99.99
13496;DHT22;6820;49.374;8.452;2023-07-02T23:23:53;20.44;99.99
13496;DHT22;6820;49.374;8.452;2023-07-02T23:27:54;20.41;99.99
13496;DHT22;6820;49.374;8.452;2023-07-02T23:32:03;20.37;99.99
13496;DHT22;6820;49.374;8.452;2023-07-02T23:36:25;20.31;99.99
13496;DHT22;6820;49.374;8.452;2023-07-02T23:40:28;20.30;99.99
13496;DHT22;6820;49.374;8.452;2023-07-02T23:44:29;20.23;99.99
13496;DHT22;6820;49.374;8.452;2023-07-02T23:48:31;20.19;99.99
13496;DHT22;6820;49.374;8.452;2023-07-02T23:52:32;20.16;99.99
13496;DHT22;6820;49.374;8.452;2023-07-02T23:56:37;20.12;99.99
